Christiansted, VI

3:23 PM AST on September 02, 2014 (GMT -0400)
Judith Hill | Change Station
CLOSE
Current Station
Personal Weather Station
Location: Christiansted, ST. CROIX
Elevation: 26 ft
Nearby Weather Stations

Elev 26 ft 17.77 °N, 64.74 °W | Updated 19 seconds ago

Scattered Clouds
Scattered Clouds
88.2 °F
Feels Like 104 °F
N
3.8
Wind Variable Wind from East
Gusts 12.1 mph

Today
High -- | Low -- °F
--% Chance of Precip.
Yesterday
High -- | Low -- °F
Precip. -- in
6:04 AM 6:31 PM
First Quarter, 54% visible
Pressure 29.96 in
Visibility 10.0 miles
Clouds Scattered Clouds 1800 ft
Heat Index 104 °F
Dew Point 79 °F
Humidity 75%
Rainfall 0.00 in
Snow Depth Not available.
UV 6 out of 12
Pollen Not available.
Air Quality Not available.
Flu Activity Not available.
METAR TISX 021853Z 10012KT 10SM SCT018 31/25 A2996 RMK AO2 SLP144 T03060250

More Conditions Fewer Conditions

Pressure 29.96 in
Visibility 10.0 miles
Clouds Scattered Clouds 1800 ft
Heat Index 104 °F
Dew Point 79 °F
Humidity 75%
Rainfall 0.00 in
Snow Depth Not available.
UV 6 out of 12
Pollen Not available.
Air Quality Not available.
Flu Activity Not available.
METAR TISX 021853Z 10012KT 10SM SCT018 31/25 A2996 RMK AO2 SLP144 T03060250

More Conditions Fewer Conditions

10-Day Weather Forecast

Almanac

Astronomy

Sep. 02, 2014 Rise Set
Actual Time 6:04 AM AST 6:31 PM AST
Civil Twilight 5:42 AM AST 6:53 PM AST
Nautical Twilight 5:17 AM AST 7:19 PM AST
Astronomical Twilight 4:51 AM AST 7:45 PM AST
Moon 12:45 PM AST No Moon Set
Length of Visible Light 13h 10m
Length of Day
12h 26m
Tomorrow will be 0m 58s shorter.
First Quarter, 54% of the Moon is Illuminated
Today
First Quarter
Sep 8
Full
Sep 15
Last Quarter
Sep 24
New
Oct 1
First Quarter

Community

WunderPhotos

Upload Photos

1,749,748 photos uploaded!

WunderBlogs® & News

By Dr. Jeff Masters
Director of Meteorology, Weather Underground
By Kari Strenfel
Meteorologist, Weather Underground
By Christopher C. Burt
Weather Historian, Weather Underground
September 2, 2014
September 2, 2014
September 2, 2014

Nearby

Snow Depth

Station Depth Elevation
No new snow has been reported.

Earthquake Activity

City Distance Mag. Time & Date
No recent earthquake activity has been reported nearby.
Minimum magnitude displayed is 2.5.

Coastal Water Temperatures

Place Temperature
Lime Tree Bay, VI 86.0 °F
Christiansted Harbor, Virgin Islands 84.9 °F
Magueyes Islands, PR 84.9 °F
Yabucoa Harbor, PR 84.9 °F
Esperanza, PR 84.9 °F
Mayaguez, PR 84.9 °F
Charlotte Amalie, VI 84.9 °F
San Juan, PR 84.9 °F

Nearby Weather Stations